Time;durP1;ratioP1;P1;durP2;ratioP2;P2;SDS_P1;SDS_P2;PMS_P1;PMS_P2;Temp;Humidity;BMP_temperature;BMP_pressure;BME280_temperature;BME280_humidity;BME280_pressure;Samples;Min_cycle;Max_cycle;Signal;HPM_P1;HPM_P2
2022/10/02 00:02:06;;;;;;;2.40;1.20;;;;;;;;;;4964890;28;20209;-35
2022/10/02 00:04:34;;;;;;;4.03;1.70;;;;;;;;;;4964696;28;20291;-34
2022/10/02 00:07:06;;;;;;;5.67;2.00;;;;;;;;;;4970280;28;20211;-34
2022/10/02 00:09:35;;;;;;;3.27;1.60;;;;;;;;;;4970866;28;20240;-35
2022/10/02 00:12:04;;;;;;;3.07;1.53;;;;;;;;;;4965064;28;20315;-33
2022/10/02 00:14:35;;;;;;;1.93;0.90;;;;;;;;;;4977705;28;20205;-33
2022/10/02 00:17:03;;;;;;;2.87;1.27;;;;;;;;;;4964876;28;20209;-34
2022/10/02 00:19:31;;;;;;;3.97;1.33;;;;;;;;;;4965875;28;20312;-32
2022/10/02 00:22:07;;;;;;;2.87;1.20;;;;;;;;;;4981494;28;20200;-34
2022/10/02 00:24:37;;;;;;;1.43;1.10;;;;;;;;;;4993656;28;20200;-34
2022/10/02 00:27:14;;;;;;;1.90;1.30;;;;;;;;;;4970790;28;20197;-34
2022/10/02 00:29:47;;;;;;;4.23;1.37;;;;;;;;;;4981346;28;20274;-35
2022/10/02 00:32:17;;;;;;;2.43;1.60;;;;;;;;;;4973246;28;20209;-33
2022/10/02 00:34:52;;;;;;;5.87;1.30;;;;;;;;;;4965388;28;20201;-32
2022/10/02 00:37:21;;;;;;;4.17;1.33;;;;;;;;;;4980298;28;20211;-34
2022/10/02 00:39:52;;;;;;;2.30;0.87;;;;;;;;;;4975773;28;20225;-33
2022/10/02 00:42:50;;;;;;;3.50;1.50;;;;;;;;;;4964026;28;20209;-34
2022/10/02 00:45:26;;;;;;;1.87;1.00;;;;;;;;;;4884822;29;20215;-35
2022/10/02 00:47:59;;;;;;;1.50;1.20;;;;;;;;;;4948564;28;20209;-35
2022/10/02 00:50:32;;;;;;;1.10;1.00;;;;;;;;;;4964781;28;20235;-35
2022/10/02 00:53:05;;;;;;;2.93;1.10;;;;;;;;;;4973246;28;20224;-35
2022/10/02 00:55:36;;;;;;;1.20;1.00;;;;;;;;;;4964599;28;20208;-33
2022/10/02 00:58:08;;;;;;;1.33;1.23;;;;;;;;;;4972624;28;20204;-35
2022/10/02 01:00:35;;;;;;;3.03;1.33;;;;;;;;;;4969516;28;20230;-35
2022/10/02 01:03:10;;;;;;;2.27;1.30;;;;;;;;;;4960954;28;20205;-35
2022/10/02 01:05:39;;;;;;;3.47;1.30;;;;;;;;;;4965673;28;20215;-33
2022/10/02 01:08:06;;;;;;;2.83;1.27;;;;;;;;;;4981244;28;20200;-32
2022/10/02 01:10:34;;;;;;;2.23;1.20;;;;;;;;;;4963646;28;20243;-35
2022/10/02 01:13:01;;;;;;;6.03;1.40;;;;;;;;;;4974485;28;20223;-35
2022/10/02 01:15:30;;;;;;;2.93;1.10;;;;;;;;;;4992492;28;20229;-32
2022/10/02 01:17:57;;;;;;;1.50;0.97;;;;;;;;;;4969849;28;20212;-34
2022/10/02 01:20:27;;;;;;;4.10;1.10;;;;;;;;;;4967007;28;20228;-32
2022/10/02 01:22:59;;;;;;;1.17;0.90;;;;;;;;;;4972938;28;20211;-35
2022/10/02 01:25:28;;;;;;;1.00;0.93;;;;;;;;;;4966018;28;20668;-35
2022/10/02 01:27:55;;;;;;;3.37;1.40;;;;;;;;;;4976521;28;20212;-35
2022/10/02 01:30:23;;;;;;;2.63;1.10;;;;;;;;;;4992508;28;20239;-35
2022/10/02 01:32:51;;;;;;;4.77;1.30;;;;;;;;;;4969045;28;20227;-32
2022/10/02 01:35:19;;;;;;;2.60;1.47;;;;;;;;;;4977383;28;20211;-35
2022/10/02 01:37:47;;;;;;;3.07;1.10;;;;;;;;;;4982236;28;20212;-34
2022/10/02 01:40:24;;;;;;;6.03;1.20;;;;;;;;;;4972035;28;20240;-34
2022/10/02 01:42:52;;;;;;;2.57;1.07;;;;;;;;;;4973351;28;20197;-33
2022/10/02 01:45:25;;;;;;;1.83;1.00;;;;;;;;;;4974094;28;20233;-33
2022/10/02 01:47:54;;;;;;;4.53;1.83;;;;;;;;;;4960857;28;20209;-33
2022/10/02 01:50:24;;;;;;;3.47;1.17;;;;;;;;;;4971048;28;20327;-32
2022/10/02 01:52:57;;;;;;;4.57;1.60;;;;;;;;;;4972323;28;20224;-35
2022/10/02 01:55:32;;;;;;;4.63;1.30;;;;;;;;;;4969787;28;20211;-32
2022/10/02 01:58:11;;;;;;;3.50;1.10;;;;;;;;;;4977188;28;20204;-35
2022/10/02 02:00:44;;;;;;;5.93;2.10;;;;;;;;;;4970743;28;20228;-35
2022/10/02 02:03:17;;;;;;;5.43;1.43;;;;;;;;;;4970108;28;20207;-33
2022/10/02 02:05:48;;;;;;;2.70;1.13;;;;;;;;;;4980375;28;20303;-35
2022/10/02 02:08:20;;;;;;;1.93;1.20;;;;;;;;;;4972621;28;20204;-33
2022/10/02 02:10:50;;;;;;;1.40;1.30;;;;;;;;;;4969364;28;20260;-35
2022/10/02 02:13:21;;;;;;;4.33;1.30;;;;;;;;;;4975926;28;20316;-32
2022/10/02 02:15:52;;;;;;;2.70;1.10;;;;;;;;;;4982844;28;20542;-33
2022/10/02 02:18:22;;;;;;;3.47;1.43;;;;;;;;;;4963142;28;20213;-34
2022/10/02 02:20:51;;;;;;;2.93;1.40;;;;;;;;;;4971733;28;20246;-34
2022/10/02 02:23:20;;;;;;;3.87;1.37;;;;;;;;;;4974660;28;20205;-36
2022/10/02 02:25:49;;;;;;;1.27;1.17;;;;;;;;;;4971654;28;20332;-32
2022/10/02 02:28:17;;;;;;;3.23;1.30;;;;;;;;;;4973015;28;20275;-33
2022/10/02 02:30:47;;;;;;;4.50;1.40;;;;;;;;;;4979917;28;20308;-33
2022/10/02 02:33:17;;;;;;;2.67;1.30;;;;;;;;;;4956988;28;20239;-33
2022/10/02 02:35:46;;;;;;;5.80;1.47;;;;;;;;;;4971227;28;20205;-33
2022/10/02 02:38:16;;;;;;;1.67;1.17;;;;;;;;;;4989515;28;20222;-35
2022/10/02 02:40:44;;;;;;;2.03;1.40;;;;;;;;;;4979682;28;20252;-33
2022/10/02 02:43:13;;;;;;;2.70;1.33;;;;;;;;;;4956634;28;20205;-34
2022/10/02 02:45:45;;;;;;;2.73;1.23;;;;;;;;;;4971293;28;20204;-34
2022/10/02 02:48:17;;;;;;;2.40;1.20;;;;;;;;;;4961789;28;20218;-35
2022/10/02 02:50:46;;;;;;;1.77;1.20;;;;;;;;;;4971330;28;20224;-32
2022/10/02 02:53:14;;;;;;;6.67;1.40;;;;;;;;;;4989418;28;20227;-32
2022/10/02 02:55:43;;;;;;;4.53;1.50;;;;;;;;;;4986200;28;20207;-32
2022/10/02 02:58:14;;;;;;;2.80;1.70;;;;;;;;;;4975209;28;20209;-35
2022/10/02 03:00:41;;;;;;;1.63;1.10;;;;;;;;;;4990142;28;20220;-35
2022/10/02 03:03:08;;;;;;;2.10;1.37;;;;;;;;;;4962342;28;20232;-35
2022/10/02 03:05:39;;;;;;;6.83;1.47;;;;;;;;;;4966482;28;20204;-35
2022/10/02 03:08:08;;;;;;;4.33;1.60;;;;;;;;;;4971422;28;20297;-33
2022/10/02 03:10:40;;;;;;;2.47;1.17;;;;;;;;;;4971077;28;20224;-33
2022/10/02 03:13:11;;;;;;;5.10;1.50;;;;;;;;;;4964418;28;20237;-32
2022/10/02 03:15:42;;;;;;;3.90;1.13;;;;;;;;;;4983818;28;20294;-33
2022/10/02 03:18:17;;;;;;;3.10;1.30;;;;;;;;;;4972387;28;20204;-32
2022/10/02 03:20:48;;;;;;;3.20;1.50;;;;;;;;;;4982806;28;20227;-34
2022/10/02 03:23:18;;;;;;;2.40;1.30;;;;;;;;;;4976851;28;20216;-34
2022/10/02 03:25:48;;;;;;;3.03;1.37;;;;;;;;;;4964883;28;20205;-35
2022/10/02 03:28:18;;;;;;;1.67;1.40;;;;;;;;;;4971258;28;20307;-32
2022/10/02 03:30:45;;;;;;;4.03;1.63;;;;;;;;;;4984993;28;20227;-35
2022/10/02 03:33:15;;;;;;;5.20;1.53;;;;;;;;;;4960893;28;20233;-33
2022/10/02 03:35:42;;;;;;;2.07;1.37;;;;;;;;;;4970279;28;20206;-34
2022/10/02 03:38:12;;;;;;;2.20;1.10;;;;;;;;;;4990306;28;20586;-35
2022/10/02 03:40:40;;;;;;;1.97;1.00;;;;;;;;;;4981522;28;20231;-34
2022/10/02 03:43:07;;;;;;;5.63;1.50;;;;;;;;;;4967772;28;20209;-33
2022/10/02 03:45:34;;;;;;;5.63;1.30;;;;;;;;;;4981745;28;20223;-34
2022/10/02 03:48:01;;;;;;;1.47;1.13;;;;;;;;;;4962340;28;20209;-33
2022/10/02 03:50:28;;;;;;;4.63;1.33;;;;;;;;;;4967367;28;20226;-35
2022/10/02 03:52:56;;;;;;;3.00;1.03;;;;;;;;;;4975414;28;20216;-34
2022/10/02 03:55:31;;;;;;;1.40;1.20;;;;;;;;;;4968579;28;20210;-35
2022/10/02 03:57:58;;;;;;;2.50;1.37;;;;;;;;;;4960766;28;20382;-32
2022/10/02 04:00:28;;;;;;;3.17;1.30;;;;;;;;;;4981688;28;20230;-34
2022/10/02 04:02:59;;;;;;;2.60;1.50;;;;;;;;;;4969325;28;20227;-32
2022/10/02 04:05:27;;;;;;;1.83;1.30;;;;;;;;;;4983139;28;20235;-35
2022/10/02 04:07:56;;;;;;;2.67;1.30;;;;;;;;;;4990362;28;20211;-35
2022/10/02 04:10:29;;;;;;;4.07;1.37;;;;;;;;;;4990030;28;20318;-33
2022/10/02 04:13:00;;;;;;;2.00;1.03;;;;;;;;;;4978054;28;20226;-34
2022/10/02 04:15:29;;;;;;;1.87;1.30;;;;;;;;;;4982831;28;20203;-33
2022/10/02 04:18:00;;;;;;;4.83;1.00;;;;;;;;;;4971403;28;20201;-33
2022/10/02 04:20:32;;;;;;;3.60;2.53;;;;;;;;;;4977558;28;20232;-33
2022/10/02 04:23:02;;;;;;;3.70;1.20;;;;;;;;;;4971623;28;20231;-33
2022/10/02 04:25:34;;;;;;;1.77;1.23;;;;;;;;;;4969176;28;20197;-34
2022/10/02 04:28:03;;;;;;;3.57;1.23;;;;;;;;;;4967862;28;20211;-32
2022/10/02 04:30:31;;;;;;;1.70;1.10;;;;;;;;;;4977793;28;20227;-35
2022/10/02 04:32:58;;;;;;;3.20;1.40;;;;;;;;;;4976316;28;20232;-33
2022/10/02 04:35:28;;;;;;;5.23;1.40;;;;;;;;;;4975716;28;20208;-32
2022/10/02 04:40:49;;;;;;;1.53;1.07;;;;;;;;;;4985765;28;20500;-36
2022/10/02 04:43:22;;;;;;;4.97;1.33;;;;;;;;;;4991346;28;20208;-35
2022/10/02 04:45:58;;;;;;;5.00;1.43;;;;;;;;;;4990279;28;20272;-34
2022/10/02 04:48:43;;;;;;;3.00;1.40;;;;;;;;;;4986220;28;20637;-36
2022/10/02 04:51:16;;;;;;;2.90;1.30;;;;;;;;;;4999543;28;20224;-33
2022/10/02 04:53:56;;;;;;;5.83;1.50;;;;;;;;;;5012993;28;20234;-33
2022/10/02 04:56:32;;;;;;;3.03;1.30;;;;;;;;;;4993181;28;20211;-33
2022/10/02 04:59:08;;;;;;;4.17;1.37;;;;;;;;;;4992091;28;20231;-35
2022/10/02 05:01:43;;;;;;;3.90;1.50;;;;;;;;;;4987025;28;20211;-36
2022/10/02 05:04:19;;;;;;;1.80;1.20;;;;;;;;;;4985822;28;20212;-35
2022/10/02 05:06:55;;;;;;;4.63;1.70;;;;;;;;;;5005984;28;20207;-36
2022/10/02 05:09:25;;;;;;;3.00;1.87;;;;;;;;;;4988328;28;20223;-32
2022/10/02 05:12:01;;;;;;;4.50;1.63;;;;;;;;;;4996834;28;20210;-36
2022/10/02 05:14:37;;;;;;;4.17;1.37;;;;;;;;;;5004187;28;20199;-34
2022/10/02 05:17:11;;;;;;;1.47;1.20;;;;;;;;;;4994170;28;20204;-33
2022/10/02 05:19:48;;;;;;;4.10;1.57;;;;;;;;;;4995188;28;20219;-36
2022/10/02 05:22:32;;;;;;;4.13;1.77;;;;;;;;;;5011518;28;20199;-35
2022/10/02 05:25:10;;;;;;;2.50;1.50;;;;;;;;;;5012380;28;20211;-34
2022/10/02 05:27:47;;;;;;;4.53;1.70;;;;;;;;;;4989521;28;20203;-35
2022/10/02 05:30:16;;;;;;;2.10;1.40;;;;;;;;;;4999811;28;20227;-37
2022/10/02 05:33:10;;;;;;;2.60;1.63;;;;;;;;;;4989598;28;20224;-35
2022/10/02 05:35:46;;;;;;;1.87;1.00;;;;;;;;;;4936980;28;20204;-33
2022/10/02 05:38:19;;;;;;;4.63;1.67;;;;;;;;;;5010160;28;20234;-31
2022/10/02 05:40:49;;;;;;;1.90;1.20;;;;;;;;;;5008784;28;20228;-36
2022/10/02 05:43:20;;;;;;;2.83;1.50;;;;;;;;;;4996193;28;20281;-35
2022/10/02 05:45:51;;;;;;;2.93;1.23;;;;;;;;;;4996017;28;20223;-33
2022/10/02 05:48:21;;;;;;;4.50;1.40;;;;;;;;;;4983904;28;20204;-34
2022/10/02 05:50:52;;;;;;;1.73;1.20;;;;;;;;;;4988258;28;20224;-32
2022/10/02 05:53:21;;;;;;;3.33;1.20;;;;;;;;;;5010391;28;20223;-35
2022/10/02 05:55:50;;;;;;;3.33;1.30;;;;;;;;;;5011421;28;20306;-34
2022/10/02 05:58:20;;;;;;;4.00;1.40;;;;;;;;;;4995249;28;20203;-31
2022/10/02 06:00:52;;;;;;;3.37;1.17;;;;;;;;;;5000734;28;20219;-35
2022/10/02 06:03:23;;;;;;;3.07;1.20;;;;;;;;;;4980326;28;20204;-33
2022/10/02 06:05:55;;;;;;;1.80;1.30;;;;;;;;;;4988870;28;20275;-33
2022/10/02 06:08:25;;;;;;;1.87;1.20;;;;;;;;;;5012116;28;20286;-32
2022/10/02 06:10:54;;;;;;;1.50;1.40;;;;;;;;;;4993275;28;20251;-35
2022/10/02 06:13:25;;;;;;;2.13;1.20;;;;;;;;;;5001601;28;20223;-36
2022/10/02 06:15:57;;;;;;;1.20;1.10;;;;;;;;;;4993949;28;20204;-33
2022/10/02 06:18:27;;;;;;;2.67;1.30;;;;;;;;;;4984347;28;20200;-32
2022/10/02 06:20:56;;;;;;;1.40;1.30;;;;;;;;;;4995417;28;20220;-33
2022/10/02 06:23:26;;;;;;;4.50;1.20;;;;;;;;;;4995503;28;20207;-32
2022/10/02 06:25:54;;;;;;;3.23;1.23;;;;;;;;;;4991941;28;20212;-33
2022/10/02 06:28:24;;;;;;;1.60;1.10;;;;;;;;;;4987884;28;20207;-33
2022/10/02 06:30:55;;;;;;;3.10;1.30;;;;;;;;;;5006682;28;20230;-35
2022/10/02 06:33:25;;;;;;;2.13;1.50;;;;;;;;;;4987484;28;20231;-32
2022/10/02 06:36:03;;;;;;;2.00;1.30;;;;;;;;;;5006654;28;20222;-32
2022/10/02 06:38:37;;;;;;;2.17;1.60;;;;;;;;;;4973977;28;20232;-31
2022/10/02 06:41:08;;;;;;;1.57;1.47;;;;;;;;;;4974547;28;20228;-34
2022/10/02 06:43:49;;;;;;;2.20;1.20;;;;;;;;;;4986743;28;20207;-32
2022/10/02 06:46:26;;;;;;;1.27;1.20;;;;;;;;;;4998275;28;20203;-32
2022/10/02 06:48:58;;;;;;;3.57;1.30;;;;;;;;;;4986679;28;20263;-34
2022/10/02 06:51:27;;;;;;;2.87;1.30;;;;;;;;;;5011798;28;20223;-35
2022/10/02 06:54:10;;;;;;;2.00;1.23;;;;;;;;;;5012305;28;20238;-34
2022/10/02 06:56:45;;;;;;;1.70;1.10;;;;;;;;;;4988473;28;20196;-33
2022/10/02 06:59:19;;;;;;;2.43;1.00;;;;;;;;;;5000826;28;20217;-34
2022/10/02 07:01:55;;;;;;;4.20;1.30;;;;;;;;;;4998149;28;20207;-34
2022/10/02 07:04:34;;;;;;;4.10;1.50;;;;;;;;;;4995601;28;20208;-32
2022/10/02 07:07:18;;;;;;;1.13;1.10;;;;;;;;;;4996087;28;20192;-35
2022/10/02 07:09:57;;;;;;;4.50;1.57;;;;;;;;;;4992905;28;20266;-34
2022/10/02 07:12:36;;;;;;;2.23;1.33;;;;;;;;;;4988506;28;20200;-30
2022/10/02 07:15:10;;;;;;;3.63;1.80;;;;;;;;;;5005121;28;20563;-33
2022/10/02 07:17:42;;;;;;;3.77;2.50;;;;;;;;;;4991747;28;20208;-33
2022/10/02 07:20:23;;;;;;;1.90;1.80;;;;;;;;;;4994626;28;20524;-32
2022/10/02 07:23:08;;;;;;;3.07;2.07;;;;;;;;;;5012347;28;20210;-31
2022/10/02 07:25:43;;;;;;;1.63;1.53;;;;;;;;;;4997240;28;20220;-31
2022/10/02 07:28:14;;;;;;;2.97;1.70;;;;;;;;;;4998285;28;20213;-33
2022/10/02 07:30:45;;;;;;;2.60;2.40;;;;;;;;;;5005734;28;20231;-33
2022/10/02 07:33:18;;;;;;;3.90;1.73;;;;;;;;;;4983873;28;20212;-34
2022/10/02 07:35:50;;;;;;;4.50;1.90;;;;;;;;;;5000534;28;20227;-34
2022/10/02 07:38:43;;;;;;;2.83;1.50;;;;;;;;;;4992604;28;20192;-35
2022/10/02 07:41:25;;;;;;;1.87;1.77;;;;;;;;;;4987369;28;20232;-35
2022/10/02 07:43:56;;;;;;;2.27;1.40;;;;;;;;;;4994286;28;20209;-34
2022/10/02 07:46:27;;;;;;;3.83;1.83;;;;;;;;;;4998508;28;20203;-34
2022/10/02 07:48:58;;;;;;;3.10;1.60;;;;;;;;;;4976795;28;20197;-31
2022/10/02 07:51:48;;;;;;;2.20;1.37;;;;;;;;;;5003174;28;20219;-32
2022/10/02 07:54:33;;;;;;;3.00;1.40;;;;;;;;;;5012863;28;20266;-33
2022/10/02 07:57:03;;;;;;;3.00;1.67;;;;;;;;;;4994423;28;20294;-32
2022/10/02 07:59:31;;;;;;;2.10;1.60;;;;;;;;;;4998555;28;20228;-35
2022/10/02 08:01:58;;;;;;;3.63;1.67;;;;;;;;;;4991903;28;20215;-37
2022/10/02 08:04:29;;;;;;;5.50;1.40;;;;;;;;;;4976856;28;20193;-36
2022/10/02 08:06:59;;;;;;;4.47;2.00;;;;;;;;;;5003850;28;20203;-34
2022/10/02 08:09:30;;;;;;;4.67;2.50;;;;;;;;;;4996681;28;20188;-31
2022/10/02 08:12:00;;;;;;;16.57;9.03;;;;;;;;;;4981930;28;20200;-35
2022/10/02 08:14:34;;;;;;;3.37;2.70;;;;;;;;;;5004143;28;20230;-34
2022/10/02 08:17:03;;;;;;;4.87;3.40;;;;;;;;;;4999485;28;20216;-35
2022/10/02 08:19:35;;;;;;;6.83;3.73;;;;;;;;;;4984850;28;20222;-33
2022/10/02 08:22:08;;;;;;;11.57;3.53;;;;;;;;;;5016332;28;20191;-32
2022/10/02 08:24:39;;;;;;;4.77;2.77;;;;;;;;;;5008841;28;20207;-34
2022/10/02 08:27:10;;;;;;;6.77;4.23;;;;;;;;;;4983928;28;20211;-30
2022/10/02 08:29:40;;;;;;;6.60;3.93;;;;;;;;;;5015409;28;20219;-32
2022/10/02 08:32:10;;;;;;;6.03;3.57;;;;;;;;;;5005746;28;20206;-34
2022/10/02 08:34:37;;;;;;;7.87;4.30;;;;;;;;;;4988233;28;20250;-35
2022/10/02 08:37:17;;;;;;;7.40;3.00;;;;;;;;;;4999735;28;20200;-32
2022/10/02 08:40:17;;;;;;;6.17;3.30;;;;;;;;;;4995947;28;20242;-33
2022/10/02 08:42:56;;;;;;;3.70;2.67;;;;;;;;;;4917031;29;20243;-32
2022/10/02 08:45:41;;;;;;;7.43;3.03;;;;;;;;;;4913157;29;20206;-34
2022/10/02 08:48:22;;;;;;;4.50;2.70;;;;;;;;;;4963777;28;20215;-32
2022/10/02 08:51:06;;;;;;;6.90;2.90;;;;;;;;;;4986680;28;20235;-34
2022/10/02 08:54:07;;;;;;;5.27;2.90;;;;;;;;;;4979959;28;20242;-36
2022/10/02 08:56:45;;;;;;;5.17;3.50;;;;;;;;;;4907244;29;20293;-36
2022/10/02 08:59:30;;;;;;;5.00;3.30;;;;;;;;;;4907808;29;20215;-32
2022/10/02 09:02:26;;;;;;;6.43;3.53;;;;;;;;;;4953836;28;20208;-33
2022/10/02 09:05:11;;;;;;;5.07;3.60;;;;;;;;;;4991384;28;20246;-33
2022/10/02 09:07:56;;;;;;;3.57;3.20;;;;;;;;;;4974570;28;20219;-34
2022/10/02 09:10:44;;;;;;;6.63;3.20;;;;;;;;;;4979848;28;20236;-34
2022/10/02 09:13:39;;;;;;;9.50;4.00;;;;;;;;;;4978622;28;20266;-32
2022/10/02 09:16:11;;;;;;;4.70;2.70;;;;;;;;;;4964660;28;20220;-35
2022/10/02 09:18:48;;;;;;;3.40;2.90;;;;;;;;;;4982305;28;20485;-34
2022/10/02 09:21:16;;;;;;;5.50;2.40;;;;;;;;;;4978925;28;20726;-35
2022/10/02 09:24:03;;;;;;;6.10;2.83;;;;;;;;;;4980696;28;20394;-35
2022/10/02 09:26:42;;;;;;;8.67;3.57;;;;;;;;;;4978664;28;20262;-35
2022/10/02 09:29:33;;;;;;;8.80;3.20;;;;;;;;;;4988436;28;20200;-35
2022/10/02 09:32:23;;;;;;;3.00;2.70;;;;;;;;;;4984366;28;20226;-33
2022/10/02 09:35:08;;;;;;;4.00;2.03;;;;;;;;;;4983652;28;20667;-34
2022/10/02 09:37:44;;;;;;;7.47;2.57;;;;;;;;;;4985519;28;20234;-37
2022/10/02 09:40:31;;;;;;;4.83;2.37;;;;;;;;;;4978961;28;20232;-36
2022/10/02 09:43:20;;;;;;;6.40;2.70;;;;;;;;;;4986167;28;20216;-34
2022/10/02 09:46:14;;;;;;;6.07;2.90;;;;;;;;;;4986902;28;20210;-35
2022/10/02 09:49:02;;;;;;;5.33;2.77;;;;;;;;;;4986430;28;20208;-33
2022/10/02 09:51:41;;;;;;;7.67;2.90;;;;;;;;;;4989975;28;20231;-36
2022/10/02 09:54:32;;;;;;;5.93;2.40;;;;;;;;;;4986719;28;20280;-34
2022/10/02 09:57:17;;;;;;;4.17;2.70;;;;;;;;;;4979990;28;20206;-33
2022/10/02 09:59:53;;;;;;;6.87;3.07;;;;;;;;;;4995768;28;20283;-38
2022/10/02 10:02:42;;;;;;;8.13;2.73;;;;;;;;;;4977779;28;20267;-35
2022/10/02 10:05:33;;;;;;;4.40;2.53;;;;;;;;;;4980909;28;20208;-34
2022/10/02 10:08:16;;;;;;;3.57;2.10;;;;;;;;;;4960830;28;20227;-33
2022/10/02 10:10:52;;;;;;;2.27;2.07;;;;;;;;;;4978947;28;20224;-33
2022/10/02 10:13:37;;;;;;;2.93;2.20;;;;;;;;;;4995906;28;20211;-32
2022/10/02 10:16:34;;;;;;;10.37;2.43;;;;;;;;;;4982809;28;20200;-34
2022/10/02 10:19:23;;;;;;;6.47;2.53;;;;;;;;;;4987514;28;20261;-34
2022/10/02 10:22:11;;;;;;;5.27;2.63;;;;;;;;;;4985147;28;20203;-34
2022/10/02 10:25:11;;;;;;;4.33;2.37;;;;;;;;;;4974423;28;20206;-35
2022/10/02 10:27:49;;;;;;;3.60;2.53;;;;;;;;;;4988061;28;20205;-36
2022/10/02 10:30:43;;;;;;;2.13;1.77;;;;;;;;;;4974532;28;20315;-34
2022/10/02 10:33:25;;;;;;;3.30;2.20;;;;;;;;;;4986763;28;20262;-36
2022/10/02 10:36:04;;;;;;;6.80;2.60;;;;;;;;;;4979562;28;20218;-35
2022/10/02 10:38:51;;;;;;;4.83;2.40;;;;;;;;;;4983447;28;20220;-34
2022/10/02 10:41:48;;;;;;;3.27;2.10;;;;;;;;;;5087182;23;20228;-39
2022/10/02 10:44:22;;;;;;;7.13;2.90;;;;;;;;;;4929743;29;20210;-43
2022/10/02 10:46:59;;;;;;;4.03;2.13;;;;;;;;;;4920844;29;20293;-42
2022/10/02 10:50:01;;;;;;;3.43;1.80;;;;;;;;;;4928446;29;20286;-42
2022/10/02 10:52:34;;;;;;;3.30;2.00;;;;;;;;;;4932777;29;20217;-40
2022/10/02 10:55:11;;;;;;;3.43;1.67;;;;;;;;;;4928490;29;20253;-43
2022/10/02 10:57:51;;;;;;;5.97;2.00;;;;;;;;;;4925331;29;20209;-42
2022/10/02 11:00:24;;;;;;;3.67;1.40;;;;;;;;;;4926854;29;20234;-44
2022/10/02 11:02:58;;;;;;;3.87;1.87;;;;;;;;;;4915844;29;20211;-42
2022/10/02 11:05:36;;;;;;;6.70;1.60;;;;;;;;;;4928582;29;20387;-41
2022/10/02 11:08:13;;;;;;;3.40;1.60;;;;;;;;;;4932000;29;20225;-42
2022/10/02 11:10:48;;;;;;;3.87;2.13;;;;;;;;;;4923073;29;20224;-42
2022/10/02 11:13:23;;;;;;;2.10;1.53;;;;;;;;;;4919627;29;20209;-43
2022/10/02 11:16:12;;;;;;;2.90;1.23;;;;;;;;;;4933508;29;20238;-43
2022/10/02 11:18:46;;;;;;;2.13;1.57;;;;;;;;;;4911318;29;20209;-44
2022/10/02 11:21:24;;;;;;;1.60;1.37;;;;;;;;;;4932082;29;20230;-43
2022/10/02 11:24:09;;;;;;;3.80;1.53;;;;;;;;;;4932972;29;20211;-39
2022/10/02 11:26:56;;;;;;;3.30;1.63;;;;;;;;;;4927076;29;20218;-42
2022/10/02 11:29:39;;;;;;;3.07;1.67;;;;;;;;;;4898961;29;20239;-39
2022/10/02 11:32:27;;;;;;;2.43;1.73;;;;;;;;;;4925420;29;20213;-39
2022/10/02 11:35:18;;;;;;;2.30;1.10;;;;;;;;;;4923274;29;20227;-42
2022/10/02 11:37:53;;;;;;;1.70;0.97;;;;;;;;;;4921915;29;20219;-39
2022/10/02 11:40:30;;;;;;;3.03;1.23;;;;;;;;;;4934760;29;20256;-43
2022/10/02 11:43:07;;;;;;;2.03;1.33;;;;;;;;;;4936098;29;20310;-43
2022/10/02 11:45:46;;;;;;;2.20;1.20;;;;;;;;;;4924786;29;20198;-41
2022/10/02 11:48:24;;;;;;;2.57;1.27;;;;;;;;;;4925727;29;20244;-43
2022/10/02 11:51:09;;;;;;;0.70;0.70;;;;;;;;;;4930026;29;20297;-42
2022/10/02 11:54:00;;;;;;;1.00;0.80;;;;;;;;;;4934917;29;20214;-43
2022/10/02 11:56:39;;;;;;;0.40;0.40;;;;;;;;;;4925938;29;20210;-40
2022/10/02 11:59:26;;;;;;;2.00;0.50;;;;;;;;;;4927059;29;20450;-42
2022/10/02 12:01:57;;;;;;;0.73;0.60;;;;;;;;;;4926402;29;20259;-43
2022/10/02 12:04:39;;;;;;;2.23;0.80;;;;;;;;;;4926270;29;20229;-40
2022/10/02 12:07:13;;;;;;;0.50;0.50;;;;;;;;;;4931269;29;20221;-43
2022/10/02 12:09:53;;;;;;;0.43;0.43;;;;;;;;;;4934196;29;20236;-37
2022/10/02 12:12:35;;;;;;;0.70;0.70;;;;;;;;;;4926004;29;20202;-43
2022/10/02 12:15:08;;;;;;;0.53;0.53;;;;;;;;;;4931061;29;20247;-43
2022/10/02 12:17:52;;;;;;;0.73;0.60;;;;;;;;;;4928201;29;20209;-42
2022/10/02 12:28:54;;;;;;;0.60;0.60;;;;;;;;;;4929659;29;20210;-41
2022/10/02 12:31:24;;;;;;;0.47;0.47;;;;;;;;;;4931752;29;20233;-43
2022/10/02 12:34:00;;;;;;;0.40;0.40;;;;;;;;;;4930326;29;20209;-43
2022/10/02 12:36:42;;;;;;;0.80;0.60;;;;;;;;;;4929969;29;20221;-42
2022/10/02 12:39:14;;;;;;;0.40;0.40;;;;;;;;;;4927637;29;20246;-43
2022/10/02 12:41:55;;;;;;;0.60;0.60;;;;;;;;;;4926059;29;20227;-40
2022/10/02 12:44:42;;;;;;;0.60;0.60;;;;;;;;;;4931903;29;20206;-40
2022/10/02 12:47:25;;;;;;;0.40;0.40;;;;;;;;;;4923994;29;20210;-43
2022/10/02 12:50:01;;;;;;;0.50;0.50;;;;;;;;;;4915524;29;20246;-44
2022/10/02 12:52:50;;;;;;;1.37;0.70;;;;;;;;;;4935780;29;20238;-42
2022/10/02 12:55:44;;;;;;;0.60;0.60;;;;;;;;;;4935005;29;20233;-45
2022/10/02 12:58:16;;;;;;;0.57;0.50;;;;;;;;;;4925649;29;20204;-41
2022/10/02 13:01:02;;;;;;;0.67;0.40;;;;;;;;;;4927526;29;20234;-43
2022/10/02 13:03:47;;;;;;;0.83;0.40;;;;;;;;;;4931708;29;20217;-43
2022/10/02 13:06:24;;;;;;;1.23;0.70;;;;;;;;;;4931392;29;20217;-40
2022/10/02 13:09:12;;;;;;;0.67;0.57;;;;;;;;;;4925563;29;20213;-41
2022/10/02 13:11:47;;;;;;;1.57;0.47;;;;;;;;;;4902437;29;20214;-40
2022/10/02 13:14:30;;;;;;;0.40;0.40;;;;;;;;;;4931629;29;20242;-43
2022/10/02 13:17:07;;;;;;;0.50;0.50;;;;;;;;;;4912909;29;20206;-41
2022/10/02 13:19:36;;;;;;;0.50;0.50;;;;;;;;;;4933349;29;20261;-43
2022/10/02 13:22:09;;;;;;;0.60;0.60;;;;;;;;;;4935228;29;20264;-41
2022/10/02 13:24:52;;;;;;;1.10;0.40;;;;;;;;;;4934938;29;20250;-42
2022/10/02 13:27:26;;;;;;;0.40;0.40;;;;;;;;;;4922223;29;20224;-43
2022/10/02 13:29:59;;;;;;;0.60;0.60;;;;;;;;;;4923736;29;20262;-44
2022/10/02 13:32:39;;;;;;;0.60;0.50;;;;;;;;;;4928931;29;20215;-45
2022/10/02 13:35:15;;;;;;;4.20;0.80;;;;;;;;;;4929025;29;20226;-44
2022/10/02 13:37:47;;;;;;;0.50;0.50;;;;;;;;;;4928669;29;20209;-43
2022/10/02 13:40:20;;;;;;;0.50;0.50;;;;;;;;;;4934495;29;20236;-44
2022/10/02 13:43:03;;;;;;;0.40;0.40;;;;;;;;;;4924321;29;20218;-44
2022/10/02 13:45:31;;;;;;;0.40;0.40;;;;;;;;;;4929089;29;20304;-43
2022/10/02 13:48:05;;;;;;;0.70;0.70;;;;;;;;;;4926375;29;20202;-44
2022/10/02 13:50:47;;;;;;;0.40;0.40;;;;;;;;;;4924545;29;20231;-44
2022/10/02 13:53:33;;;;;;;1.50;0.60;;;;;;;;;;4924305;29;20213;-44
2022/10/02 13:56:05;;;;;;;0.50;0.50;;;;;;;;;;4923222;29;20227;-43
2022/10/02 13:58:42;;;;;;;1.43;0.60;;;;;;;;;;4925326;29;20294;-44
2022/10/02 14:01:16;;;;;;;0.40;0.40;;;;;;;;;;4925997;29;20257;-44
2022/10/02 14:03:58;;;;;;;0.57;0.50;;;;;;;;;;4926122;29;20213;-42
2022/10/02 14:06:28;;;;;;;1.13;0.93;;;;;;;;;;4981182;23;20258;-34
2022/10/02 14:09:18;;;;;;;1.00;0.87;;;;;;;;;;4972273;28;20765;-31
2022/10/02 14:11:51;;;;;;;0.57;0.53;;;;;;;;;;4941661;29;20625;-33
2022/10/02 14:14:23;;;;;;;0.40;0.40;;;;;;;;;;4947225;29;20218;-32
2022/10/02 14:16:57;;;;;;;0.50;0.50;;;;;;;;;;4947847;29;20743;-32
2022/10/02 14:19:34;;;;;;;0.50;0.50;;;;;;;;;;4951197;29;20207;-32
2022/10/02 14:22:08;;;;;;;0.40;0.40;;;;;;;;;;4951453;29;20306;-32
2022/10/02 14:24:59;;;;;;;0.43;0.30;;;;;;;;;;4956787;28;20212;-33
2022/10/02 14:27:41;;;;;;;2.57;0.80;;;;;;;;;;4948593;29;20293;-33
2022/10/02 14:30:11;;;;;;;0.40;0.40;;;;;;;;;;4941338;28;20238;-34
2022/10/02 14:32:48;;;;;;;0.50;0.50;;;;;;;;;;4940995;29;20211;-32
2022/10/02 14:35:30;;;;;;;0.50;0.50;;;;;;;;;;4935853;29;20230;-34
2022/10/02 14:38:16;;;;;;;1.17;0.50;;;;;;;;;;4944504;29;20613;-33
2022/10/02 14:40:50;;;;;;;1.03;0.93;;;;;;;;;;4936642;29;20218;-32
2022/10/02 14:43:24;;;;;;;0.33;0.30;;;;;;;;;;4951799;29;20212;-33
2022/10/02 14:46:06;;;;;;;1.47;0.60;;;;;;;;;;4944309;29;20294;-34
2022/10/02 14:48:49;;;;;;;0.50;0.50;;;;;;;;;;4932291;29;20293;-34
2022/10/02 14:51:26;;;;;;;2.00;0.60;;;;;;;;;;4941393;29;20230;-34
2022/10/02 14:53:59;;;;;;;0.40;0.40;;;;;;;;;;4934477;29;20221;-34
2022/10/02 14:56:33;;;;;;;0.47;0.40;;;;;;;;;;4943379;29;20234;-34
2022/10/02 14:59:08;;;;;;;1.30;0.40;;;;;;;;;;4945627;28;20197;-33
2022/10/02 15:01:42;;;;;;;0.40;0.40;;;;;;;;;;4948514;29;20296;-35
2022/10/02 15:04:22;;;;;;;0.43;0.43;;;;;;;;;;4933487;29;20214;-32
2022/10/02 15:07:03;;;;;;;0.30;0.30;;;;;;;;;;4945510;29;20746;-32
2022/10/02 15:09:34;;;;;;;1.13;0.50;;;;;;;;;;4949847;29;20238;-34
2022/10/02 15:12:07;;;;;;;0.40;0.40;;;;;;;;;;4941122;29;20209;-34
2022/10/02 15:14:40;;;;;;;0.40;0.40;;;;;;;;;;4945314;28;20201;-32
2022/10/02 15:19:58;;;;;;;0.40;0.40;;;;;;;;;;4941558;29;20249;-31
2022/10/02 15:22:28;;;;;;;0.47;0.30;;;;;;;;;;4943374;29;20214;-32
2022/10/02 15:24:57;;;;;;;0.63;0.40;;;;;;;;;;4940854;29;20244;-33
2022/10/02 15:27:26;;;;;;;0.77;0.77;;;;;;;;;;4946824;29;20198;-32
2022/10/02 15:29:58;;;;;;;1.83;1.70;;;;;;;;;;4932372;29;20229;-32
2022/10/02 15:32:34;;;;;;;1.43;1.30;;;;;;;;;;4938293;29;20216;-31
2022/10/02 15:35:08;;;;;;;4.00;0.77;;;;;;;;;;4940219;29;20217;-33
2022/10/02 15:37:42;;;;;;;0.90;0.90;;;;;;;;;;4934041;29;20596;-33
2022/10/02 15:40:20;;;;;;;2.77;2.57;;;;;;;;;;4933548;29;20239;-34
2022/10/02 15:42:53;;;;;;;1.00;0.90;;;;;;;;;;4936540;29;20237;-30
2022/10/02 15:45:26;;;;;;;0.83;0.70;;;;;;;;;;4935878;29;20210;-33
2022/10/02 15:48:08;;;;;;;1.20;1.03;;;;;;;;;;4941098;29;20201;-33